Chaffee Village, Texas
Current Conditions -  °F | °C
As of 11:58 AM on Thursday 18 Dec 2014 (Local Time) from KHLR Reporting Station
Haze Haze  
Wind Chill: 54°   Ceiling: 500
Heat Index: 54°   Visibility: 2mi
Dew Point: 52°   Wind: 3mph
Humidity: 95%   Direction: 360°N
Pressure: 30.12"   Gusts: NA
Location:  31.2151°N, 97.7405°W
Report Text: KHLR 181758Z AUTO 36003KT 2SM BR OVC005 12/11 A3012 RMK AO2 SLP199 T01200112 10120 20080 50000
Loading
Personal Weather Stations






























Interactive Weather Map New forecast layout! Learn more

10-Day Weather Forecast

Advertisements
Track Severe Weather on mobile